PWSweather.com
Personal Weather Stations
Station Observations
KB2SBX
Sugarloaf, Sugarloaf, PA 18249

SugarloafSugarloaf, PA 18249

Lat: 41.0126685, Lon: -76.1082041

Elevation: 1030

Station Type: WS-2080

http://sugarloafpaweather.webng.com/weather.shtml

High Low Average
Temperature 41.4°F5.2°C 26.8°F-2.9°C 33.0°F0.6°C
Dew Point 22.1°F-5.5°C 13.4°F-10.3°C 17.2°F-8.2°C
Winds 5.2 mph 8.4 kmh Calm Calm 2.0 mph SW3.2 kmh SW
Wind Gusts 14.5 mph23.3 kmh -- 6.0 mph9.7 kmh
Humidity 59% 43% 52%
Pressure 30.40 in1029.5 mb 30.23 in1023.7 mb -
Precipitation 0.00 in0.0 mm - -
Hour Temp Dew Point Humidity Winds Wind Gusts Pressure Precip Precip Rate Daily Precip Total
12:15 AM 32.5°F0.3°C 18.2°F-7.7°C 55% 3.0 mph SSE4.8 kmh SSE 7.6 mph12.2 kmh 30.23 in1023.7 mb 0.00 in0.0 mm 0.00 in/hr0.0 mm/hr 0.00 in0.0 mm
12:30 AM 32.4°F0.2°C 17.6°F-8.0°C 54% 3.9 mph SW6.3 kmh SW 13.0 mph20.9 kmh 30.23 in1023.7 mb 0.00 in0.0 mm 0.00 in/hr0.0 mm/hr 0.00 in0.0 mm
12:45 AM 32.0°F0.0°C 16.8°F-8.4°C 53% 3.4 mph WSW5.5 kmh WSW 14.5 mph23.3 kmh 30.23 in1023.7 mb 0.00 in0.0 mm 0.00 in/hr0.0 mm/hr 0.00 in0.0 mm
01:00 AM 31.8°F-0.1°C 16.2°F-8.8°C 52% 5.2 mph NE8.4 kmh NE 14.5 mph23.3 kmh 30.23 in1023.7 mb 0.00 in0.0 mm 0.00 in/hr0.0 mm/hr 0.00 in0.0 mm
01:15 AM 31.6°F-0.2°C 16.1°F-8.8°C 52% 5.1 mph NW8.2 kmh NW 12.1 mph19.5 kmh 30.24 in1024.0 mb 0.00 in0.0 mm 0.00 in/hr0.0 mm/hr 0.00 in0.0 mm
01:30 AM 31.3°F-0.4°C 15.7°F-9.1°C 52% 3.1 mph WSW5.0 kmh WSW 13.6 mph21.9 kmh 30.25 in1024.4 mb 0.00 in0.0 mm 0.00 in/hr0.0 mm/hr 0.00 in0.0 mm
01:45 AM 30.9°F-0.6°C 15.4°F-9.2°C 52% 3.0 mph S4.8 kmh S 12.1 mph19.5 kmh 30.25 in1024.4 mb 0.00 in0.0 mm 0.00 in/hr0.0 mm/hr 0.00 in0.0 mm
02:00 AM 30.7°F-0.7°C 15.2°F-9.3°C 52% 2.0 mph S3.2 kmh S 5.4 mph8.7 kmh 30.25 in1024.4 mb 0.00 in0.0 mm 0.00 in/hr0.0 mm/hr 0.00 in0.0 mm
02:15 AM 30.4°F-0.9°C 15.3°F-9.3°C 53% 1.1 mph SE1.8 kmh SE 5.4 mph8.7 kmh 30.25 in1024.4 mb 0.00 in0.0 mm 0.00 in/hr0.0 mm/hr 0.00 in0.0 mm
02:30 AM 29.8°F-1.2°C 15.7°F-9.1°C 55% 1.2 mph NE1.9 kmh NE 5.4 mph8.7 kmh 30.25 in1024.4 mb 0.00 in0.0 mm 0.00 in/hr0.0 mm/hr 0.00 in0.0 mm
02:45 AM 29.7°F-1.3°C 15.9°F-8.9°C 56% 2.0 mph SW3.2 kmh SW 7.6 mph12.2 kmh 30.25 in1024.4 mb 0.00 in0.0 mm 0.00 in/hr0.0 mm/hr 0.00 in0.0 mm
03:00 AM 29.8°F-1.2°C 16.1°F-8.8°C 56% 2.9 mph SE4.7 kmh SE 10.7 mph17.2 kmh 30.25 in1024.4 mb 0.00 in0.0 mm 0.00 in/hr0.0 mm/hr 0.00 in0.0 mm
03:15 AM 29.5°F-1.4°C 15.8°F-9.0°C 56% 1.8 mph SW2.9 kmh SW 3.8 mph6.1 kmh 30.27 in1025.1 mb 0.00 in0.0 mm 0.00 in/hr0.0 mm/hr 0.00 in0.0 mm
03:30 AM 29.7°F-1.3°C 15.9°F-8.9°C 56% 3.3 mph SSE5.3 kmh SSE 10.7 mph17.2 kmh 30.27 in1025.1 mb 0.00 in0.0 mm 0.00 in/hr0.0 mm/hr 0.00 in0.0 mm
03:45 AM 29.7°F-1.3°C 15.9°F-8.9°C 56% 2.3 mph SSW3.7 kmh SSW 6.9 mph11.1 kmh 30.28 in1025.4 mb 0.00 in0.0 mm 0.00 in/hr0.0 mm/hr 0.00 in0.0 mm
04:00 AM 29.5°F-1.4°C 15.8°F-9.0°C 56% 2.9 mph S4.7 kmh S 6.9 mph11.1 kmh 30.28 in1025.4 mb 0.00 in0.0 mm 0.00 in/hr0.0 mm/hr 0.00 in0.0 mm
04:15 AM 29.1°F-1.6°C 15.4°F-9.2°C 56% 1.7 mph WSW2.7 kmh WSW 5.4 mph8.7 kmh 30.30 in1026.1 mb 0.00 in0.0 mm 0.00 in/hr0.0 mm/hr 0.00 in0.0 mm
04:30 AM 28.9°F-1.7°C 15.2°F-9.3°C 56% 0.8 mph NW1.3 kmh NW 3.8 mph6.1 kmh 30.30 in1026.1 mb 0.00 in0.0 mm 0.00 in/hr0.0 mm/hr 0.00 in0.0 mm
04:45 AM 28.9°F-1.7°C 15.7°F-9.1°C 57% 2.2 mph N3.5 kmh N 13.6 mph21.9 kmh 30.30 in1026.1 mb 0.00 in0.0 mm 0.00 in/hr0.0 mm/hr 0.00 in0.0 mm
05:00 AM 28.8°F-1.8°C 15.9°F-8.9°C 58% 1.3 mph NNW2.1 kmh NNW 6.0 mph9.7 kmh 30.31 in1026.4 mb 0.00 in0.0 mm 0.00 in/hr0.0 mm/hr 0.00 in0.0 mm
05:15 AM 28.6°F-1.9°C 15.3°F-9.3°C 57% 3.0 mph NNW4.8 kmh NNW 6.9 mph11.1 kmh 30.31 in1026.4 mb 0.00 in0.0 mm 0.00 in/hr0.0 mm/hr 0.00 in0.0 mm
05:30 AM 28.6°F-1.9°C 15.3°F-9.3°C 57% 2.8 mph NW4.5 kmh NW 7.6 mph12.2 kmh 30.31 in1026.4 mb 0.00 in0.0 mm 0.00 in/hr0.0 mm/hr 0.00 in0.0 mm
05:45 AM 28.2°F-2.1°C 13.7°F-10.2°C 54% 2.3 mph NW3.7 kmh NW 4.5 mph7.2 kmh 30.31 in1026.4 mb 0.00 in0.0 mm 0.00 in/hr0.0 mm/hr 0.00 in0.0 mm
06:00 AM 28.2°F-2.1°C 13.7°F-10.2°C 54% 1.9 mph N3.1 kmh N 5.4 mph8.7 kmh 30.32 in1026.8 mb 0.00 in0.0 mm 0.00 in/hr0.0 mm/hr 0.00 in0.0 mm
06:15 AM 27.9°F-2.3°C 13.4°F-10.3°C 54% 2.3 mph SE3.7 kmh SE 6.9 mph11.1 kmh 30.32 in1026.8 mb 0.00 in0.0 mm 0.00 in/hr0.0 mm/hr 0.00 in0.0 mm
06:30 AM 27.7°F-2.4°C 13.7°F-10.2°C 55% 1.5 mph SSE2.4 kmh SSE 4.5 mph7.2 kmh 30.32 in1026.8 mb 0.00 in0.0 mm 0.00 in/hr0.0 mm/hr 0.00 in0.0 mm
06:45 AM 27.5°F-2.5°C 13.9°F-10.1°C 56% 1.5 mph SE2.4 kmh SE 5.4 mph8.7 kmh 30.33 in1027.1 mb 0.00 in0.0 mm 0.00 in/hr0.0 mm/hr 0.00 in0.0 mm
07:00 AM 27.1°F-2.7°C 13.6°F-10.2°C 56% 1.1 mph S1.8 kmh S 5.4 mph8.7 kmh 30.34 in1027.4 mb 0.00 in0.0 mm 0.00 in/hr0.0 mm/hr 0.00 in0.0 mm
07:15 AM 27.0°F-2.8°C 13.8°F-10.1°C 57% 0.9 mph E1.4 kmh E 3.8 mph6.1 kmh 30.34 in1027.4 mb 0.00 in0.0 mm 0.00 in/hr0.0 mm/hr 0.00 in0.0 mm
07:30 AM 27.1°F-2.7°C 14.0°F-10.0°C 57% 0.9 mph SE1.4 kmh SE 4.5 mph7.2 kmh 30.34 in1027.4 mb 0.00 in0.0 mm 0.00 in/hr0.0 mm/hr 0.00 in0.0 mm
07:45 AM 27.0°F-2.8°C 13.8°F-10.1°C 57% 0.8 mph S1.3 kmh S 3.1 mph5.0 kmh 30.36 in1028.1 mb 0.00 in0.0 mm 0.00 in/hr0.0 mm/hr 0.00 in0.0 mm
08:00 AM 27.1°F-2.7°C 14.0°F-10.0°C 57% 1.7 mph NE2.7 kmh NE 6.9 mph11.1 kmh 30.36 in1028.1 mb 0.00 in0.0 mm 0.00 in/hr0.0 mm/hr 0.00 in0.0 mm
08:15 AM 27.0°F-2.8°C 13.8°F-10.1°C 57% 0.7 mph WNW1.1 kmh WNW 5.4 mph8.7 kmh 30.37 in1028.4 mb 0.00 in0.0 mm 0.00 in/hr0.0 mm/hr 0.00 in0.0 mm
08:30 AM 26.8°F-2.9°C 13.6°F-10.2°C 57% 0.9 mph ESE1.4 kmh ESE 3.8 mph6.1 kmh 30.38 in1028.8 mb 0.00 in0.0 mm 0.00 in/hr0.0 mm/hr 0.00 in0.0 mm
08:45 AM 27.0°F-2.8°C 13.8°F-10.1°C 57% 1.5 mph SSE2.4 kmh SSE 6.0 mph9.7 kmh 30.38 in1028.8 mb 0.00 in0.0 mm 0.00 in/hr0.0 mm/hr 0.00 in0.0 mm
09:00 AM 28.0°F-2.2°C 14.4°F-9.8°C 56% 2.9 mph S4.7 kmh S 9.8 mph15.8 kmh 30.39 in1029.1 mb 0.00 in0.0 mm 0.00 in/hr0.0 mm/hr 0.00 in0.0 mm
09:15 AM 28.4°F-2.0°C 15.9°F-8.9°C 59% 1.8 mph NW2.9 kmh NW 9.2 mph14.8 kmh 30.39 in1029.1 mb 0.00 in0.0 mm 0.00 in/hr0.0 mm/hr 0.00 in0.0 mm
09:30 AM 28.4°F-2.0°C 15.5°F-9.2°C 58% 1.7 mph NNW2.7 kmh NNW 6.9 mph11.1 kmh 30.39 in1029.1 mb 0.00 in0.0 mm 0.00 in/hr0.0 mm/hr 0.00 in0.0 mm
09:45 AM 28.6°F-1.9°C 16.1°F-8.8°C 59% 0.6 mph NE1.0 kmh NE 3.1 mph5.0 kmh 30.40 in1029.5 mb 0.00 in0.0 mm 0.00 in/hr0.0 mm/hr 0.00 in0.0 mm
10:00 AM 28.8°F-1.8°C 16.3°F-8.7°C 59% 0.7 mph SSE1.1 kmh SSE 3.8 mph6.1 kmh 30.39 in1029.1 mb 0.00 in0.0 mm 0.00 in/hr0.0 mm/hr 0.00 in0.0 mm
10:15 AM 29.7°F-1.3°C 16.7°F-8.5°C 58% 0.7 mph SE1.1 kmh SE 3.8 mph6.1 kmh 30.39 in1029.1 mb 0.00 in0.0 mm 0.00 in/hr0.0 mm/hr 0.00 in0.0 mm
10:30 AM 31.5°F-0.3°C 17.6°F-8.0°C 56% 2.6 mph NW4.2 kmh NW 10.7 mph17.2 kmh 30.40 in1029.5 mb 0.00 in0.0 mm 0.00 in/hr0.0 mm/hr 0.00 in0.0 mm
10:45 AM 32.7°F0.4°C 17.9°F-7.8°C 54% 1.9 mph NW3.1 kmh NW 6.0 mph9.7 kmh 30.39 in1029.1 mb 0.00 in0.0 mm 0.00 in/hr0.0 mm/hr 0.00 in0.0 mm
11:00 AM 33.8°F1.0°C 17.6°F-8.0°C 51% 2.6 mph N4.2 kmh N 7.6 mph12.2 kmh 30.40 in1029.5 mb 0.00 in0.0 mm 0.00 in/hr0.0 mm/hr 0.00 in0.0 mm
11:15 AM 34.2°F1.2°C 18.0°F-7.8°C 51% 2.1 mph NW3.4 kmh NW 6.9 mph11.1 kmh 30.40 in1029.5 mb 0.00 in0.0 mm 0.00 in/hr0.0 mm/hr 0.00 in0.0 mm
11:30 AM 34.3°F1.3°C 17.7°F-7.9°C 50% 2.8 mph NNE4.5 kmh NNE 7.6 mph12.2 kmh 30.39 in1029.1 mb 0.00 in0.0 mm 0.00 in/hr0.0 mm/hr 0.00 in0.0 mm
11:45 AM 35.6°F2.0°C 18.4°F-7.6°C 49% 2.2 mph SSW3.5 kmh SSW 6.0 mph9.7 kmh 30.40 in1029.5 mb 0.00 in0.0 mm 0.00 in/hr0.0 mm/hr 0.00 in0.0 mm
12:00 PM 36.3°F2.4°C 18.5°F-7.5°C 48% 2.8 mph NE4.5 kmh NE 8.3 mph13.4 kmh 30.40 in1029.5 mb 0.00 in0.0 mm 0.00 in/hr0.0 mm/hr 0.00 in0.0 mm
12:15 PM 35.8°F2.1°C 18.0°F-7.8°C 48% 3.1 mph NE5.0 kmh NE 6.9 mph11.1 kmh 30.39 in1029.1 mb 0.00 in0.0 mm 0.00 in/hr0.0 mm/hr 0.00 in0.0 mm
12:30 PM 37.4°F3.0°C 20.5°F-6.4°C 50% 2.3 mph W3.7 kmh W 6.0 mph9.7 kmh 30.39 in1029.1 mb 0.00 in0.0 mm 0.00 in/hr0.0 mm/hr 0.00 in0.0 mm
12:45 PM 38.1°F3.4°C 22.1°F-5.5°C 52% 2.3 mph SW3.7 kmh SW 6.0 mph9.7 kmh 30.38 in1028.8 mb 0.00 in0.0 mm 0.00 in/hr0.0 mm/hr 0.00 in0.0 mm
01:00 PM 37.2°F2.9°C 17.3°F-8.2°C 44% 4.1 mph NNW6.6 kmh NNW 7.6 mph12.2 kmh 30.37 in1028.4 mb 0.00 in0.0 mm 0.00 in/hr0.0 mm/hr 0.00 in0.0 mm
01:15 PM 38.1°F3.4°C 22.1°F-5.5°C 52% 2.1 mph SE3.4 kmh SE 5.4 mph8.7 kmh 30.35 in1027.8 mb 0.00 in0.0 mm 0.00 in/hr0.0 mm/hr 0.00 in0.0 mm
01:30 PM 38.3°F3.5°C 20.4°F-6.4°C 48% 3.5 mph NW5.6 kmh NW 9.8 mph15.8 kmh 30.35 in1027.8 mb 0.00 in0.0 mm 0.00 in/hr0.0 mm/hr 0.00 in0.0 mm
01:45 PM 38.5°F3.6°C 20.5°F-6.4°C 48% 3.7 mph WNW6.0 kmh WNW 8.3 mph13.4 kmh 30.35 in1027.8 mb 0.00 in0.0 mm 0.00 in/hr0.0 mm/hr 0.00 in0.0 mm
02:00 PM 38.3°F3.5°C 20.4°F-6.4°C 48% 2.6 mph NW4.2 kmh NW 6.0 mph9.7 kmh 30.34 in1027.4 mb 0.00 in0.0 mm 0.00 in/hr0.0 mm/hr 0.00 in0.0 mm
02:15 PM 37.8°F3.2°C 19.4°F-7.0°C 47% 3.6 mph N5.8 kmh N 7.6 mph12.2 kmh 30.33 in1027.1 mb 0.00 in0.0 mm 0.00 in/hr0.0 mm/hr 0.00 in0.0 mm
02:30 PM 38.7°F3.7°C 20.2°F-6.6°C 47% 3.1 mph N5.0 kmh N 7.6 mph12.2 kmh 30.33 in1027.1 mb 0.00 in0.0 mm 0.00 in/hr0.0 mm/hr 0.00 in0.0 mm
02:45 PM 40.6°F4.8°C 21.5°F-5.8°C 46% 3.0 mph WNW4.8 kmh WNW 8.3 mph13.4 kmh 30.33 in1027.1 mb 0.00 in0.0 mm 0.00 in/hr0.0 mm/hr 0.00 in0.0 mm
03:00 PM 40.6°F4.8°C 21.0°F-6.1°C 45% 3.3 mph NW5.3 kmh NW 9.2 mph14.8 kmh 30.32 in1026.8 mb 0.00 in0.0 mm 0.00 in/hr0.0 mm/hr 0.00 in0.0 mm
03:15 PM 41.4°F5.2°C 21.1°F-6.1°C 44% 2.4 mph NW3.9 kmh NW 8.3 mph13.4 kmh 30.32 in1026.8 mb 0.00 in0.0 mm 0.00 in/hr0.0 mm/hr 0.00 in0.0 mm
03:30 PM 41.0°F5.0°C 20.2°F-6.6°C 43% 2.7 mph WSW4.3 kmh WSW 6.9 mph11.1 kmh 30.32 in1026.8 mb 0.00 in0.0 mm 0.00 in/hr0.0 mm/hr 0.00 in0.0 mm
03:45 PM 41.0°F5.0°C 20.2°F-6.6°C 43% 2.3 mph NW3.7 kmh NW 6.0 mph9.7 kmh 30.31 in1026.4 mb 0.00 in0.0 mm 0.00 in/hr0.0 mm/hr 0.00 in0.0 mm
04:00 PM 40.3°F4.6°C 20.1°F-6.6°C 44% 1.7 mph NW2.7 kmh NW 6.9 mph11.1 kmh 30.31 in1026.4 mb 0.00 in0.0 mm 0.00 in/hr0.0 mm/hr 0.00 in0.0 mm
04:15 PM 39.2°F4.0°C 19.7°F-6.8°C 45% 2.0 mph WSW3.2 kmh WSW 8.3 mph13.4 kmh 30.31 in1026.4 mb 0.00 in0.0 mm 0.00 in/hr0.0 mm/hr 0.00 in0.0 mm
04:30 PM 39.6°F4.2°C 20.0°F-6.7°C 45% 3.0 mph NW4.8 kmh NW 7.6 mph12.2 kmh 30.31 in1026.4 mb 0.00 in0.0 mm 0.00 in/hr0.0 mm/hr 0.00 in0.0 mm
04:45 PM 38.8°F3.8°C 19.9°F-6.7°C 46% 2.5 mph NW4.0 kmh NW 7.6 mph12.2 kmh 30.31 in1026.4 mb 0.00 in0.0 mm 0.00 in/hr0.0 mm/hr 0.00 in0.0 mm
05:00 PM 38.7°F3.7°C 20.2°F-6.6°C 47% 2.8 mph N4.5 kmh N 8.3 mph13.4 kmh 30.31 in1026.4 mb 0.00 in0.0 mm 0.00 in/hr0.0 mm/hr 0.00 in0.0 mm
05:15 PM 38.8°F3.8°C 20.4°F-6.4°C 47% 2.4 mph N3.9 kmh N 6.9 mph11.1 kmh 30.31 in1026.4 mb 0.00 in0.0 mm 0.00 in/hr0.0 mm/hr 0.00 in0.0 mm
05:30 PM 38.7°F3.7°C 20.2°F-6.6°C 47% 1.5 mph NNW2.4 kmh NNW 3.8 mph6.1 kmh 30.31 in1026.4 mb 0.00 in0.0 mm 0.00 in/hr0.0 mm/hr 0.00 in0.0 mm
05:45 PM 38.5°F3.6°C 20.5°F-6.4°C 48% 1.8 mph SE2.9 kmh SE 4.5 mph7.2 kmh 30.31 in1026.4 mb 0.00 in0.0 mm 0.00 in/hr0.0 mm/hr 0.00 in0.0 mm
06:00 PM 38.5°F3.6°C 20.0°F-6.7°C 47% 0.4 mph NW0.6 kmh NW 2.2 mph3.5 kmh 30.31 in1026.4 mb 0.00 in0.0 mm 0.00 in/hr0.0 mm/hr 0.00 in0.0 mm
06:15 PM 37.4°F3.0°C 19.5°F-6.9°C 48% 0.1 mph E0.2 kmh E 2.2 mph3.5 kmh 30.31 in1026.4 mb 0.00 in0.0 mm 0.00 in/hr0.0 mm/hr 0.00 in0.0 mm
06:30 PM 36.1°F2.3°C 17.9°F-7.8°C 47% 0.2 mph NE0.3 kmh NE 2.2 mph3.5 kmh 30.31 in1026.4 mb 0.00 in0.0 mm 0.00 in/hr0.0 mm/hr 0.00 in0.0 mm
06:45 PM 35.2°F1.8°C 17.5°F-8.1°C 48% Calm Calm -- 30.32 in1026.8 mb 0.00 in0.0 mm 0.00 in/hr0.0 mm/hr 0.00 in0.0 mm
07:00 PM 34.5°F1.4°C 17.8°F-7.9°C 50% 0.1 mph N0.2 kmh N 1.6 mph2.6 kmh 30.31 in1026.4 mb 0.00 in0.0 mm 0.00 in/hr0.0 mm/hr 0.00 in0.0 mm
07:15 PM 33.4°F0.8°C 17.3°F-8.2°C 51% Calm Calm 0.7 mph1.1 kmh 30.31 in1026.4 mb 0.00 in0.0 mm 0.00 in/hr0.0 mm/hr 0.00 in0.0 mm
07:30 PM 32.4°F0.2°C 17.2°F-8.2°C 53% Calm Calm 0.7 mph1.1 kmh 30.32 in1026.8 mb 0.00 in0.0 mm 0.00 in/hr0.0 mm/hr 0.00 in0.0 mm
07:45 PM 31.5°F-0.3°C 17.6°F-8.0°C 56% 0.6 mph N1.0 kmh N 1.6 mph2.6 kmh 30.32 in1026.8 mb 0.00 in0.0 mm 0.00 in/hr0.0 mm/hr 0.00 in0.0 mm
08:00 PM 30.7°F-0.7°C 17.7°F-7.9°C 58% 0.4 mph N0.6 kmh N 1.6 mph2.6 kmh 30.32 in1026.8 mb 0.00 in0.0 mm 0.00 in/hr0.0 mm/hr 0.00 in0.0 mm
08:15 PM 30.4°F-0.9°C 17.8°F-7.9°C 59% 0.2 mph N0.3 kmh N 1.6 mph2.6 kmh 30.31 in1026.4 mb 0.00 in0.0 mm 0.00 in/hr0.0 mm/hr 0.00 in0.0 mm
08:30 PM 30.0°F-1.1°C 18.6°F-7.4°C 62% 0.7 mph N1.1 kmh N 2.2 mph3.5 kmh 30.31 in1026.4 mb 0.00 in0.0 mm 0.00 in/hr0.0 mm/hr 0.00 in0.0 mm
08:45 PM 29.7°F-1.3°C 18.3°F-7.6°C 62% 0.6 mph N1.0 kmh N 2.2 mph3.5 kmh 30.31 in1026.4 mb 0.00 in0.0 mm 0.00 in/hr0.0 mm/hr 0.00 in0.0 mm
09:00 PM 29.5°F-1.4°C 18.5°F-7.5°C 63% 0.7 mph N1.1 kmh N 2.2 mph3.5 kmh 30.32 in1026.8 mb 0.00 in0.0 mm 0.00 in/hr0.0 mm/hr 0.00 in0.0 mm
09:15 PM 29.3°F-1.5°C 18.3°F-7.6°C 63% 0.1 mph N0.2 kmh N 1.6 mph2.6 kmh 30.31 in1026.4 mb 0.00 in0.0 mm 0.00 in/hr0.0 mm/hr 0.00 in0.0 mm
09:30 PM 29.1°F-1.6°C 18.5°F-7.5°C 64% 0.2 mph N0.3 kmh N 1.6 mph2.6 kmh 30.31 in1026.4 mb 0.00 in0.0 mm 0.00 in/hr0.0 mm/hr 0.00 in0.0 mm
09:45 PM 28.9°F-1.7°C 18.3°F-7.6°C 64% Calm Calm 0.7 mph1.1 kmh 30.30 in1026.1 mb 0.00 in0.0 mm 0.00 in/hr0.0 mm/hr 0.00 in0.0 mm
10:00 PM 28.9°F-1.7°C 18.3°F-7.6°C 64% Calm Calm -- 30.30 in1026.1 mb 0.00 in0.0 mm 0.00 in/hr0.0 mm/hr 0.00 in0.0 mm
10:15 PM 28.8°F-1.8°C 18.5°F-7.5°C 65% Calm Calm -- 30.30 in1026.1 mb 0.00 in0.0 mm 0.00 in/hr0.0 mm/hr 0.00 in0.0 mm
10:30 PM 28.4°F-2.0°C 17.8°F-7.9°C 64% Calm Calm -- 30.29 in1025.7 mb 0.00 in0.0 mm 0.00 in/hr0.0 mm/hr 0.00 in0.0 mm
10:45 PM 27.1°F-2.7°C 15.5°F-9.2°C 61% Calm Calm -- 30.30 in1026.1 mb 0.00 in0.0 mm 0.00 in/hr0.0 mm/hr 0.00 in0.0 mm
11:00 PM 26.6°F-3.0°C 15.4°F-9.2°C 62% Calm Calm -- 30.29 in1025.7 mb 0.00 in0.0 mm 0.00 in/hr0.0 mm/hr 0.00 in0.0 mm
11:15 PM 26.1°F-3.3°C 15.6°F-9.1°C 64% Calm Calm -- 30.29 in1025.7 mb 0.00 in0.0 mm 0.00 in/hr0.0 mm/hr 0.00 in0.0 mm
11:30 PM 26.2°F-3.2°C 16.8°F-8.4°C 67% Calm Calm -- 30.29 in1025.7 mb 0.00 in0.0 mm 0.00 in/hr0.0 mm/hr 0.00 in0.0 mm
11:45 PM 26.8°F-2.9°C 17.0°F-8.3°C 66% Calm Calm -- 30.29 in1025.7 mb 0.00 in0.0 mm 0.00 in/hr0.0 mm/hr 0.00 in0.0 mm